createdAt,value
2019-03-06T00:00:50.202Z,91.86
2019-03-06T00:01:54.197Z,91.76
2019-03-06T00:02:50.698Z,91.95
2019-03-06T00:03:50.697Z,91.67
2019-03-06T00:04:50.696Z,91.48
2019-03-06T00:05:50.698Z,91.00
2019-03-06T00:07:15.697Z,91.19
2019-03-06T00:07:51.199Z,91.76
2019-03-06T00:08:51.196Z,91.29
2019-03-06T00:09:51.200Z,91.57
2019-03-06T00:11:12.697Z,91.95
2019-03-06T00:11:51.695Z,92.14
2019-03-06T00:12:55.695Z,91.67
2019-03-06T00:13:51.695Z,91.10
2019-03-06T00:17:57.847Z,90.91
2019-03-06T00:18:55.359Z,90.44
2019-03-06T00:19:56.288Z,90.53
2019-03-06T00:20:55.859Z,90.25
2019-03-06T00:21:55.851Z,90.25
2019-03-06T00:23:01.989Z,90.06
2019-03-06T00:23:55.857Z,90.25
2019-03-06T00:24:56.359Z,90.06
2019-03-06T00:25:56.353Z,90.63
2019-03-06T00:26:56.355Z,91.00
2019-03-06T00:27:56.353Z,91.76
2019-03-06T00:29:23.787Z,91.76
2019-03-06T00:30:19.850Z,91.38
2019-03-06T00:30:56.853Z,91.48
2019-03-06T00:31:56.852Z,91.29
2019-03-06T00:32:57.352Z,91.48
2019-03-06T00:34:00.853Z,91.76
2019-03-06T00:34:57.354Z,92.05
2019-03-06T00:35:57.363Z,91.95
2019-03-06T00:36:57.868Z,92.33
2019-03-06T00:37:57.851Z,92.14
2019-03-06T00:38:58.814Z,91.76
2019-03-06T00:40:22.851Z,92.33
2019-03-06T00:40:57.852Z,92.24
2019-03-06T00:41:58.351Z,92.05
2019-03-06T00:42:58.351Z,92.14
2019-03-06T00:43:58.353Z,92.33
2019-03-06T00:44:58.350Z,92.14
2019-03-06T00:46:03.314Z,92.43
2019-03-06T00:46:58.852Z,92.14
2019-03-06T00:47:58.850Z,92.14
2019-03-06T00:48:58.874Z,91.95
2019-03-06T00:49:58.857Z,91.95
2019-03-06T00:51:05.353Z,91.95
2019-03-06T00:51:59.350Z,91.95
2019-03-06T00:52:59.351Z,92.14
2019-03-06T00:53:59.351Z,92.14
2019-03-06T00:54:59.854Z,92.05
2019-03-06T00:55:59.849Z,92.14
2019-03-06T00:57:02.849Z,92.14
2019-03-06T00:57:59.851Z,91.95
2019-03-06T01:02:07.046Z,93.27
2019-03-06T01:03:05.549Z,93.46
2019-03-06T01:04:04.515Z,93.75
2019-03-06T01:05:24.552Z,93.84
2019-03-06T01:06:03.553Z,93.75
2019-03-06T01:07:28.552Z,93.84
2019-03-06T01:08:04.048Z,93.94
2019-03-06T01:09:25.055Z,93.75
2019-03-06T01:10:04.061Z,94.51
2019-03-06T01:11:05.990Z,94.89
2019-03-06T01:12:06.552Z,94.98
2019-03-06T01:13:08.592Z,94.98
2019-03-06T01:14:04.603Z,94.79
2019-03-06T01:15:04.552Z,95.07
2019-03-06T01:16:05.054Z,95.26
2019-03-06T01:17:07.047Z,95.36
2019-03-06T01:18:05.051Z,95.36
2019-03-06T01:19:08.578Z,95.17
2019-03-06T01:20:05.559Z,94.70
2019-03-06T01:22:36.908Z,95.17
2019-03-06T01:23:57.911Z,95.07
2019-03-06T01:24:40.915Z,95.07
2019-03-06T01:25:37.411Z,94.98
2019-03-06T01:26:39.409Z,95.74
2019-03-06T01:27:37.419Z,95.74
2019-03-06T01:28:37.409Z,95.17
2019-03-06T01:29:37.931Z,95.36
2019-03-06T01:30:40.907Z,95.83
2019-03-06T01:31:37.908Z,95.36
2019-03-06T01:32:37.908Z,96.12
2019-03-06T01:33:40.408Z,95.74
2019-03-06T01:34:38.408Z,96.21
2019-03-06T01:35:41.915Z,96.12
2019-03-06T01:36:38.408Z,96.12
2019-03-06T01:37:59.914Z,96.40
2019-03-06T01:38:38.908Z,96.31
2019-03-06T01:39:38.908Z,95.41
2019-03-06T01:40:38.908Z,96.36
2019-03-06T01:41:42.908Z,96.17
2019-03-06T01:42:39.406Z,95.79
2019-03-06T01:44:00.405Z,96.36
2019-03-06T01:44:39.408Z,95.88
2019-03-06T01:45:39.907Z,95.88
2019-03-06T01:47:04.407Z,96.36
2019-03-06T01:47:39.915Z,96.17
2019-03-06T01:48:39.910Z,95.69
2019-03-06T01:49:41.866Z,95.79
2019-03-06T01:51:01.411Z,95.69
2019-03-06T01:51:40.406Z,96.36
2019-03-06T01:52:44.406Z,96.17
2019-03-06T01:53:40.407Z,96.36
2019-03-06T01:54:40.906Z,95.98
2019-03-06T01:55:40.906Z,96.07
2019-03-06T01:56:40.908Z,96.07
2019-03-06T01:57:40.907Z,96.55
2019-03-06T01:58:45.406Z,96.26
2019-03-06T02:01:12.768Z,96.36
2019-03-06T02:02:12.771Z,96.17
2019-03-06T02:03:12.767Z,95.88
2019-03-06T02:04:16.770Z,96.07
2019-03-06T02:05:13.267Z,95.60
2019-03-06T02:06:34.267Z,95.69
2019-03-06T02:07:13.266Z,95.31
2019-03-06T02:08:15.767Z,95.41
2019-03-06T02:09:38.268Z,94.65
2019-03-06T02:10:13.766Z,95.03
2019-03-06T02:11:15.766Z,94.84
2019-03-06T02:12:35.269Z,94.74
2019-03-06T02:13:14.266Z,94.74
2019-03-06T02:14:14.267Z,94.65
2019-03-06T02:15:17.766Z,95.03
2019-03-06T02:16:14.768Z,94.84
2019-03-06T02:17:14.779Z,94.84
2019-03-06T02:18:14.766Z,94.84
2019-03-06T02:19:15.699Z,95.03
2019-03-06T02:20:40.269Z,95.03
2019-03-06T02:21:38.265Z,94.84
2019-03-06T02:22:15.268Z,94.65
2019-03-06T02:23:40.203Z,94.56
2019-03-06T02:24:15.765Z,94.84
2019-03-06T02:25:28.199Z,94.84
2019-03-06T02:26:20.218Z,94.74
2019-03-06T02:27:15.766Z,95.03
2019-03-06T02:28:15.774Z,94.74
2019-03-06T02:29:18.267Z,94.93
2019-03-06T02:30:16.266Z,94.93
2019-03-06T02:31:20.264Z,95.03
2019-03-06T02:32:16.273Z,94.65
2019-03-06T02:33:37.768Z,93.89
2019-03-06T02:34:16.767Z,94.18
2019-03-06T02:35:16.777Z,93.70
2019-03-06T02:36:16.765Z,93.89
2019-03-06T02:37:20.264Z,93.99
2019-03-06T02:38:17.289Z,93.99
2019-03-06T02:39:17.265Z,94.65
2019-03-06T02:40:17.264Z,94.74
2019-03-06T02:41:18.721Z,94.74
2019-03-06T02:42:42.266Z,94.93
2019-03-06T02:43:17.764Z,95.31
2019-03-06T02:44:17.763Z,95.41
2019-03-06T02:45:17.770Z,95.41
2019-03-06T02:46:18.260Z,95.03
2019-03-06T02:47:18.266Z,95.12
2019-03-06T02:48:42.263Z,95.31
2019-03-06T02:49:18.264Z,95.12
2019-03-06T02:50:39.761Z,95.22
2019-03-06T02:51:18.772Z,95.41
2019-03-06T02:52:18.762Z,95.79
2019-03-06T02:53:22.762Z,95.12
2019-03-06T02:54:19.263Z,95.41
2019-03-06T02:55:19.262Z,94.65
2019-03-06T02:56:23.197Z,94.74
2019-03-06T02:57:19.264Z,94.84
2019-03-06T02:58:22.764Z,95.31
2019-03-06T02:59:19.763Z,95.41
2019-03-06T03:00:19.763Z,95.22
2019-03-06T03:01:19.761Z,94.84
2019-03-06T03:03:55.493Z,94.74
2019-03-06T03:04:51.498Z,95.12
2019-03-06T03:05:51.496Z,95.88
2019-03-06T03:07:13.001Z,95.69
2019-03-06T03:07:52.008Z,95.03
2019-03-06T03:08:52.003Z,95.69
2019-03-06T03:09:55.494Z,95.60
2019-03-06T03:10:52.498Z,95.60
2019-03-06T03:12:13.525Z,95.60
2019-03-06T03:12:52.503Z,96.36
2019-03-06T03:13:52.495Z,96.55
2019-03-06T03:16:27.870Z,97.30
2019-03-06T03:17:27.873Z,97.11
2019-03-06T03:18:27.873Z,97.68
2019-03-06T03:21:03.603Z,97.87
2019-03-06T03:21:59.608Z,97.87
2019-03-06T03:22:59.610Z,97.54
2019-03-06T03:24:00.109Z,97.68
2019-03-06T03:25:21.102Z,97.02
2019-03-06T03:26:05.612Z,97.59
2019-03-06T03:27:01.064Z,97.40
2019-03-06T03:28:00.607Z,97.68
2019-03-06T03:29:01.566Z,98.30
2019-03-06T03:30:00.765Z,97.97
2019-03-06T03:31:00.609Z,97.73
2019-03-06T03:32:09.049Z,97.30
2019-03-06T03:33:00.608Z,97.49
2019-03-06T03:35:32.340Z,97.21
2019-03-06T03:36:32.338Z,97.11
2019-03-06T03:39:07.723Z,97.54
2019-03-06T03:40:07.730Z,97.16
2019-03-06T03:41:07.742Z,96.69
2019-03-06T03:42:09.184Z,96.41
2019-03-06T03:43:12.244Z,96.22
2019-03-06T03:44:08.230Z,96.31
2019-03-06T03:45:08.242Z,96.03
2019-03-06T03:46:08.229Z,95.65
2019-03-06T03:47:08.728Z,96.22
2019-03-06T03:48:08.727Z,95.93
2019-03-06T03:49:11.729Z,96.22
2019-03-06T03:50:08.729Z,96.41
2019-03-06T03:51:10.695Z,96.22
2019-03-06T03:52:09.227Z,96.26
2019-03-06T03:53:09.237Z,96.73
2019-03-06T03:54:13.234Z,96.59
2019-03-06T03:55:09.226Z,96.59
2019-03-06T03:56:09.728Z,96.50
2019-03-06T03:57:09.731Z,97.16
2019-03-06T03:58:09.730Z,97.45
2019-03-06T03:59:09.729Z,97.45
2019-03-06T04:00:35.241Z,96.97
2019-03-06T04:01:10.229Z,96.31
2019-03-06T04:02:10.228Z,96.59
2019-03-06T04:03:10.283Z,97.07
2019-03-06T04:04:10.723Z,96.22
2019-03-06T04:05:10.731Z,95.84
2019-03-06T04:06:35.226Z,95.74
2019-03-06T04:07:10.726Z,95.55
2019-03-06T04:08:12.167Z,95.74
2019-03-06T04:09:11.233Z,95.36
2019-03-06T04:10:32.234Z,95.93
2019-03-06T04:11:18.185Z,95.84
2019-03-06T04:12:11.228Z,96.03
2019-03-06T04:13:11.225Z,96.03
2019-03-06T04:15:42.958Z,96.59
2019-03-06T04:17:07.957Z,96.41
2019-03-06T04:17:42.961Z,96.78
2019-03-06T04:18:43.462Z,96.97
2019-03-06T04:19:43.462Z,96.78
2019-03-06T04:20:43.469Z,96.78
2019-03-06T04:21:43.463Z,96.41
2019-03-06T04:22:47.966Z,96.59
2019-03-06T04:23:43.966Z,96.97
2019-03-06T04:24:43.964Z,96.41
2019-03-06T04:25:43.961Z,95.74
2019-03-06T04:26:44.458Z,96.41
2019-03-06T04:27:44.473Z,96.22
2019-03-06T04:28:47.963Z,96.22
2019-03-06T04:29:44.560Z,95.84
2019-03-06T04:31:05.963Z,95.84
2019-03-06T04:31:44.960Z,95.65
2019-03-06T04:32:44.960Z,95.26
2019-03-06T04:34:09.960Z,95.74
2019-03-06T04:35:06.460Z,95.74
2019-03-06T04:35:46.397Z,95.26
2019-03-06T04:36:45.464Z,96.22
2019-03-06T04:37:45.461Z,95.93
2019-03-06T04:38:45.959Z,95.45
2019-03-06T04:39:49.959Z,95.55
2019-03-06T04:40:45.987Z,95.45
2019-03-06T04:41:45.960Z,95.74
2019-03-06T04:42:46.460Z,95.36
2019-03-06T04:43:46.458Z,95.45
2019-03-06T04:44:46.458Z,96.22
2019-03-06T04:45:49.958Z,96.12
2019-03-06T04:46:46.971Z,96.41
2019-03-06T04:47:47.042Z,96.22
2019-03-06T04:48:46.958Z,95.93
2019-03-06T04:49:52.792Z,96.55
2019-03-06T04:50:50.958Z,96.22
2019-03-06T04:51:47.462Z,96.41
2019-03-06T04:52:47.458Z,96.41
2019-03-06T04:53:47.457Z,96.26
2019-03-06T04:54:47.957Z,95.93
2019-03-06T04:55:47.961Z,96.41
2019-03-06T04:56:51.958Z,96.08
2019-03-06T04:57:47.967Z,96.92
2019-03-06T04:58:48.457Z,96.22
2019-03-06T04:59:48.457Z,95.98
2019-03-06T05:00:48.461Z,96.59
2019-03-06T05:01:48.455Z,96.50
2019-03-06T05:02:51.959Z,96.69
2019-03-06T05:03:48.957Z,96.45
2019-03-06T05:04:48.957Z,96.64
2019-03-06T05:05:48.960Z,96.45
2019-03-06T05:07:10.456Z,97.21
2019-03-06T05:07:52.952Z,96.83
2019-03-06T05:08:49.459Z,97.12
2019-03-06T05:09:49.456Z,96.92
2019-03-06T05:10:49.964Z,97.59
2019-03-06T05:11:49.956Z,97.59
2019-03-06T05:12:49.957Z,97.54
2019-03-06T05:13:53.956Z,97.40
2019-03-06T05:14:49.546Z,97.21
2019-03-06T05:16:11.456Z,97.40
2019-03-06T05:17:11.454Z,97.59
2019-03-06T05:17:50.462Z,97.02
2019-03-06T05:18:49.935Z,97.21
2019-03-06T05:19:53.961Z,97.12
2019-03-06T05:20:50.962Z,96.73
2019-03-06T05:21:50.954Z,97.02
2019-03-06T05:22:50.956Z,96.64
2019-03-06T05:23:51.455Z,96.83
2019-03-06T05:24:55.455Z,97.02
2019-03-06T05:25:51.455Z,97.50
2019-03-06T05:26:51.454Z,97.31
2019-03-06T05:27:51.957Z,97.21
2019-03-06T05:28:51.954Z,97.59
2019-03-06T05:29:51.954Z,97.59
2019-03-06T05:30:55.457Z,98.35
2019-03-06T05:33:44.696Z,99.20
2019-03-06T05:34:23.699Z,98.73
2019-03-06T05:35:23.693Z,98.82
2019-03-06T05:36:27.693Z,98.07
2019-03-06T05:37:24.241Z,98.16
2019-03-06T05:38:24.196Z,97.78
2019-03-06T05:39:24.193Z,98.44
2019-03-06T05:40:25.631Z,98.35
2019-03-06T05:41:24.692Z,98.44
2019-03-06T05:42:27.691Z,98.25
2019-03-06T05:43:24.692Z,97.50
2019-03-06T05:44:46.192Z,97.40
2019-03-06T05:45:25.192Z,97.21
2019-03-06T05:46:25.194Z,97.12
2019-03-06T05:47:29.192Z,96.92
2019-03-06T05:48:27.694Z,97.02
2019-03-06T05:50:57.051Z,96.64
2019-03-06T05:51:57.065Z,96.73
2019-03-06T05:53:00.556Z,96.64
2019-03-06T05:53:57.554Z,96.45
2019-03-06T05:55:18.555Z,96.55
2019-03-06T05:55:57.559Z,96.64
2019-03-06T05:56:57.562Z,96.92
2019-03-06T05:58:01.553Z,97.40
2019-03-06T05:59:19.055Z,97.31
2019-03-06T05:59:58.054Z,97.21
2019-03-06T06:00:58.058Z,97.31
2019-03-06T06:01:58.567Z,97.21
2019-03-06T06:03:23.053Z,97.59
2019-03-06T06:03:58.558Z,97.40
2019-03-06T06:04:58.553Z,97.21
2019-03-06T06:05:59.141Z,97.50
2019-03-06T06:06:59.054Z,97.78
2019-03-06T06:07:59.054Z,97.40
2019-03-06T06:09:03.053Z,97.59
2019-03-06T06:09:59.553Z,97.59
2019-03-06T06:10:59.556Z,97.21
2019-03-06T06:11:59.553Z,97.31
2019-03-06T06:12:59.570Z,97.40
2019-03-06T06:14:00.054Z,97.40
2019-03-06T06:15:04.055Z,97.78
2019-03-06T06:16:00.058Z,97.40
2019-03-06T06:17:00.061Z,97.59
2019-03-06T06:19:31.793Z,97.59
2019-03-06T06:20:35.299Z,97.31
2019-03-06T06:21:31.806Z,97.02
2019-03-06T06:22:32.299Z,96.83
2019-03-06T06:23:32.298Z,97.21
2019-03-06T06:24:32.309Z,97.88
2019-03-06T06:25:32.308Z,98.35
2019-03-06T06:26:36.302Z,98.92
2019-03-06T06:27:53.799Z,98.82
2019-03-06T06:28:32.806Z,99.20
2019-03-06T06:29:32.803Z,99.58
2019-03-06T06:30:55.734Z,99.77
2019-03-06T06:32:03.803Z,99.39
2019-03-06T06:32:39.299Z,98.92
2019-03-06T06:33:33.296Z,98.54
2019-03-06T06:34:35.800Z,97.97
2019-03-06T06:37:09.155Z,97.64
2019-03-06T06:38:05.168Z,97.64
2019-03-06T06:39:05.164Z,97.36
2019-03-06T06:40:05.664Z,97.07
2019-03-06T06:41:05.666Z,96.88
2019-03-06T06:42:05.669Z,97.74
2019-03-06T06:43:09.165Z,96.59
2019-03-06T06:44:06.163Z,96.88
2019-03-06T06:45:05.385Z,96.97
2019-03-06T06:46:07.631Z,96.69
2019-03-06T06:47:06.164Z,96.69
2019-03-06T06:48:10.159Z,96.41
2019-03-06T06:49:06.663Z,96.69
2019-03-06T06:50:06.663Z,96.69
2019-03-06T06:51:06.663Z,96.88
2019-03-06T06:52:07.174Z,96.69
2019-03-06T06:53:07.165Z,96.78
2019-03-06T06:54:10.163Z,97.45
2019-03-06T06:55:07.166Z,97.83
2019-03-06T06:56:07.663Z,97.64
2019-03-06T06:58:39.018Z,97.45
2019-03-06T06:59:45.033Z,97.26
2019-03-06T07:00:38.624Z,97.64
2019-03-06T07:03:11.353Z,97.31
2019-03-06T07:04:10.699Z,97.60
2019-03-06T07:05:15.363Z,96.88
2019-03-06T07:06:11.369Z,96.74
2019-03-06T07:07:11.862Z,96.83
2019-03-06T07:08:11.863Z,96.74
2019-03-06T07:09:11.866Z,96.74
2019-03-06T07:10:15.862Z,96.55
2019-03-06T07:11:13.874Z,96.83
2019-03-06T07:12:12.362Z,96.74
2019-03-06T07:13:13.798Z,97.02
2019-03-06T07:14:12.361Z,96.74
2019-03-06T07:15:12.363Z,96.74
2019-03-06T07:16:15.862Z,96.55
2019-03-06T07:17:13.815Z,96.74
2019-03-06T07:18:12.861Z,96.74
2019-03-06T07:19:12.870Z,96.74
2019-03-06T07:20:12.861Z,97.41
2019-03-06T07:21:16.861Z,97.31
2019-03-06T07:23:44.594Z,97.78
2019-03-06T07:24:44.601Z,97.78
2019-03-06T07:26:05.602Z,97.88
2019-03-06T07:26:48.602Z,97.92
2019-03-06T07:27:45.117Z,97.27
2019-03-06T07:28:45.102Z,97.83
2019-03-06T07:29:45.100Z,97.45
2019-03-06T07:30:45.601Z,97.83
2019-03-06T07:31:49.604Z,96.79
2019-03-06T07:32:45.601Z,96.79
2019-03-06T07:33:45.601Z,96.79
2019-03-06T07:34:46.102Z,96.98
2019-03-06T07:35:46.100Z,96.88
2019-03-06T07:36:49.602Z,96.41
2019-03-06T07:37:46.104Z,96.60
2019-03-06T07:38:46.600Z,96.50
2019-03-06T07:39:46.600Z,96.60
2019-03-06T07:40:46.600Z,96.50
2019-03-06T07:41:46.600Z,95.94
2019-03-06T07:42:50.603Z,95.84
2019-03-06T07:45:39.462Z,96.41
2019-03-06T07:46:18.468Z,96.88
2019-03-06T07:47:18.467Z,96.93
2019-03-06T07:48:23.439Z,96.84
2019-03-06T07:49:18.969Z,97.22
2019-03-06T07:50:18.967Z,96.93
2019-03-06T07:51:18.969Z,96.93
2019-03-06T07:52:19.466Z,96.45
2019-03-06T07:53:43.966Z,96.65
2019-03-06T07:54:19.467Z,97.12
2019-03-06T07:55:19.468Z,97.41
2019-03-06T07:56:19.965Z,97.22
2019-03-06T07:57:19.967Z,97.41
2019-03-06T07:58:19.970Z,97.78
2019-03-06T07:59:22.764Z,97.64
2019-03-06T08:00:20.466Z,97.83
2019-03-06T08:01:20.468Z,97.93
2019-03-06T08:02:20.472Z,96.98
2019-03-06T08:03:42.944Z,96.50
2019-03-06T08:04:24.466Z,96.50
2019-03-06T08:05:43.969Z,96.17
2019-03-06T08:07:52.328Z,97.03
2019-03-06T08:08:52.337Z,96.74
2019-03-06T08:09:56.337Z,96.55
2019-03-06T08:10:52.835Z,96.22
2019-03-06T08:11:52.843Z,95.65
2019-03-06T08:12:52.844Z,96.22
2019-03-06T08:13:52.835Z,95.27
2019-03-06T08:14:53.335Z,93.94
2019-03-06T08:15:57.335Z,93.27
2019-03-06T08:16:53.341Z,93.08
2019-03-06T08:17:53.335Z,91.65
2019-03-06T08:18:55.934Z,91.27
2019-03-06T08:19:53.835Z,90.99
2019-03-06T08:20:53.838Z,90.70
2019-03-06T08:21:57.335Z,90.89
2019-03-06T08:22:54.335Z,90.36
2019-03-06T08:23:54.364Z,90.17
2019-03-06T08:24:54.334Z,90.27
2019-03-06T08:25:54.336Z,90.17
2019-03-06T08:26:58.335Z,89.61
2019-03-06T08:27:54.834Z,89.32
2019-03-06T08:28:54.834Z,89.41
2019-03-06T08:29:54.837Z,88.37
2019-03-06T08:30:55.334Z,88.37
2019-03-06T08:31:55.330Z,89.32
2019-03-06T08:32:59.346Z,88.65
2019-03-06T08:33:55.335Z,87.41
2019-03-06T08:34:55.834Z,89.22
2019-03-06T08:35:57.268Z,88.37
2019-03-06T08:36:55.841Z,88.56
2019-03-06T08:39:31.738Z,87.03
2019-03-06T08:40:52.741Z,87.03
2019-03-06T08:41:31.759Z,86.60
2019-03-06T08:42:53.248Z,86.79
2019-03-06T08:43:57.248Z,87.84
2019-03-06T08:44:53.244Z,88.03
2019-03-06T08:45:33.682Z,86.46
2019-03-06T08:46:46.744Z,86.84
2019-03-06T08:47:32.743Z,86.84
2019-03-06T08:48:32.745Z,86.69
2019-03-06T08:49:57.245Z,86.84
2019-03-06T08:50:54.242Z,85.70
2019-03-06T08:51:36.182Z,85.32
2019-03-06T08:52:33.247Z,85.89
2019-03-06T08:53:33.246Z,86.55
2019-03-06T08:54:37.244Z,87.79
2019-03-06T08:55:54.773Z,88.46
2019-03-06T08:56:33.743Z,87.03
2019-03-06T08:57:33.745Z,86.94
2019-03-06T08:58:55.250Z,86.84
2019-03-06T08:59:36.245Z,86.75
2019-03-06T09:00:38.245Z,87.41
2019-03-06T09:01:34.245Z,88.31
2019-03-06T09:02:55.747Z,86.84
2019-03-06T09:03:34.798Z,85.70
2019-03-06T09:04:34.744Z,85.60
2019-03-06T09:05:34.752Z,86.75
2019-03-06T09:06:39.179Z,87.55
2019-03-06T09:07:35.241Z,86.75
2019-03-06T09:08:35.246Z,86.51
2019-03-06T09:09:35.244Z,86.32
2019-03-06T09:10:35.743Z,86.60
2019-03-06T09:11:39.570Z,86.22
2019-03-06T09:12:35.744Z,85.55
2019-03-06T09:13:35.745Z,85.08
2019-03-06T09:14:57.244Z,85.74
2019-03-06T09:15:36.252Z,86.32
2019-03-06T09:16:36.244Z,85.17
2019-03-06T09:17:40.244Z,84.36
2019-03-06T09:18:36.744Z,85.02
2019-03-06T09:19:36.745Z,86.55
2019-03-06T09:20:40.709Z,84.55
2019-03-06T09:21:36.744Z,83.69
2019-03-06T09:22:37.242Z,83.69
2019-03-06T09:23:40.243Z,82.83
2019-03-06T09:24:37.244Z,83.97
2019-03-06T09:25:37.247Z,83.31
2019-03-06T09:26:37.761Z,82.64
2019-03-06T09:27:38.706Z,82.26
2019-03-06T09:29:02.747Z,81.88
2019-03-06T09:29:37.747Z,83.02
2019-03-06T09:30:37.749Z,82.07
2019-03-06T09:31:44.262Z,82.26
2019-03-06T09:32:38.244Z,82.07
2019-03-06T09:33:41.749Z,82.26
2019-03-06T09:34:38.244Z,82.64
2019-03-06T09:35:38.750Z,82.83
2019-03-06T09:36:38.744Z,80.54
2019-03-06T09:37:38.743Z,80.16
2019-03-06T09:38:42.743Z,80.64
2019-03-06T09:41:31.480Z,81.68
2019-03-06T09:42:10.489Z,81.97
2019-03-06T09:43:10.492Z,81.59
2019-03-06T09:44:14.490Z,82.35
2019-03-06T09:45:10.989Z,82.64
2019-03-06T09:46:10.989Z,81.63
2019-03-06T09:47:10.989Z,83.16
2019-03-06T09:48:12.775Z,83.35
2019-03-06T09:49:35.993Z,82.11
2019-03-06T09:50:11.489Z,81.25
2019-03-06T09:51:11.489Z,81.63
2019-03-06T09:53:43.226Z,79.72
2019-03-06T09:55:08.235Z,79.15
2019-03-06T09:55:43.236Z,79.82
2019-03-06T09:57:03.800Z,79.63
2019-03-06T09:58:04.738Z,80.11
2019-03-06T09:58:43.734Z,78.58
2019-03-06T09:59:43.738Z,78.86
2019-03-06T10:00:47.233Z,79.44
2019-03-06T10:01:44.233Z,78.96
2019-03-06T10:02:44.233Z,81.15
2019-03-06T10:03:44.259Z,80.49
2019-03-06T10:04:44.233Z,78.10
2019-03-06T10:05:48.234Z,76.86
2019-03-06T10:06:44.734Z,78.67
2019-03-06T10:07:44.771Z,80.49
2019-03-06T10:08:44.734Z,80.49
2019-03-06T10:10:12.239Z,81.38
2019-03-06T10:11:09.734Z,80.53
2019-03-06T10:11:45.233Z,79.57
2019-03-06T10:12:47.671Z,77.00
2019-03-06T10:13:45.733Z,77.95
2019-03-06T10:14:45.729Z,78.52
2019-03-06T10:15:45.739Z,76.42
2019-03-06T10:16:49.203Z,76.42
2019-03-06T10:17:45.733Z,77.67
2019-03-06T10:19:13.236Z,76.62
2019-03-06T10:19:46.240Z,77.19
2019-03-06T10:20:46.240Z,77.95
2019-03-06T10:21:46.233Z,78.43
2019-03-06T10:22:50.735Z,78.62
2019-03-06T10:23:47.512Z,77.47
2019-03-06T10:24:46.735Z,77.67
2019-03-06T10:25:46.734Z,77.76
2019-03-06T10:27:08.235Z,76.23
2019-03-06T10:27:47.242Z,74.90
2019-03-06T10:28:50.738Z,76.04
2019-03-06T10:30:09.202Z,75.95
2019-03-06T10:31:08.741Z,76.08
2019-03-06T10:31:49.186Z,75.79
2019-03-06T10:33:08.734Z,75.89
2019-03-06T10:33:50.759Z,74.27
2019-03-06T10:34:47.733Z,73.69
2019-03-06T10:35:48.239Z,73.60
2019-03-06T10:36:48.236Z,75.89
2019-03-06T10:37:48.235Z,75.70
2019-03-06T10:39:14.175Z,75.70
2019-03-06T10:39:48.734Z,75.03
2019-03-06T10:41:09.734Z,75.09
2019-03-06T10:41:54.734Z,74.27
2019-03-06T10:42:48.733Z,74.08
2019-03-06T10:43:49.651Z,73.22
2019-03-06T10:46:24.813Z,76.94
2019-03-06T10:47:45.830Z,73.79
2019-03-06T10:48:24.810Z,73.22
2019-03-06T10:49:46.311Z,74.08
2019-03-06T10:50:28.856Z,73.32
2019-03-06T10:51:25.350Z,73.32
2019-03-06T10:52:25.808Z,73.50
2019-03-06T10:53:25.810Z,73.22
2019-03-06T10:54:25.810Z,72.93
2019-03-06T10:55:28.816Z,71.92
2019-03-06T10:56:25.814Z,71.82
2019-03-06T10:59:18.503Z,71.72
2019-03-06T10:59:57.562Z,72.30
2019-03-06T11:01:01.066Z,72.30
2019-03-06T11:01:59.022Z,71.15
2019-03-06T11:03:19.057Z,70.87
2019-03-06T11:03:58.058Z,71.72
2019-03-06T11:04:58.064Z,71.00
2019-03-06T11:05:58.060Z,71.47
2019-03-06T11:07:02.064Z,70.20
2019-03-06T11:07:58.561Z,71.53
2019-03-06T11:08:58.565Z,70.67
2019-03-06T11:09:58.560Z,70.90
2019-03-06T11:12:54.799Z,70.90
2019-03-06T11:13:30.308Z,69.18
2019-03-06T11:14:30.307Z,68.41
2019-03-06T11:15:55.602Z,68.99
2019-03-06T11:16:32.505Z,68.04
2019-03-06T11:17:30.813Z,65.45
2019-03-06T11:18:34.814Z,66.44
2019-03-06T11:19:53.796Z,67.11
2019-03-06T11:20:31.312Z,66.35
2019-03-06T11:21:31.319Z,66.83
2019-03-06T11:22:31.308Z,67.49
2019-03-06T11:23:56.318Z,68.45
2019-03-06T11:24:31.809Z,68.07
2019-03-06T11:25:54.271Z,64.82
2019-03-06T11:26:31.803Z,64.15
2019-03-06T11:30:39.018Z,62.14
2019-03-06T11:31:39.026Z,59.65
2019-03-06T11:32:39.026Z,58.91
2019-03-06T11:33:39.530Z,58.62
2019-03-06T11:34:43.024Z,57.89
2019-03-06T11:35:39.526Z,56.96
2019-03-06T11:36:39.003Z,55.97
2019-03-06T11:37:40.034Z,55.21
2019-03-06T11:38:40.026Z,56.23
2019-03-06T11:39:39.385Z,56.52
2019-03-06T11:42:36.700Z,56.99
2019-03-06T11:43:18.142Z,56.81
2019-03-06T11:44:15.712Z,55.63
2019-03-06T11:45:16.211Z,56.77
2019-03-06T11:46:19.709Z,57.26
2019-03-06T11:47:15.592Z,56.87
2019-03-06T11:48:16.207Z,56.59
2019-03-06T11:49:16.712Z,57.19
2019-03-06T11:50:16.712Z,57.92
2019-03-06T11:51:16.707Z,56.52
2019-03-06T11:52:22.452Z,57.57
2019-03-06T11:53:16.306Z,57.38
2019-03-06T11:54:38.213Z,56.71
2019-03-06T11:55:17.207Z,57.86
2019-03-06T11:56:17.212Z,58.05
2019-03-06T11:57:17.707Z,57.09
2019-03-06T11:58:20.708Z,57.48
2019-03-06T11:59:17.709Z,58.05
2019-03-06T12:00:17.182Z,56.61
2019-03-06T12:01:18.210Z,56.01
2019-03-06T12:02:20.206Z,57.54
2019-03-06T12:03:22.208Z,57.61
2019-03-06T12:04:18.215Z,58.76
2019-03-06T12:05:18.755Z,59.05
2019-03-06T12:06:22.143Z,59.91
2019-03-06T12:07:18.708Z,59.91
2019-03-06T12:08:18.708Z,58.86
2019-03-06T12:11:15.456Z,60.29
2019-03-06T12:11:54.462Z,60.00
2019-03-06T12:12:54.469Z,60.67
2019-03-06T12:13:55.039Z,59.69
2019-03-06T12:15:18.461Z,60.23
2019-03-06T12:15:54.970Z,60.52
2019-03-06T12:16:54.965Z,59.94
2019-03-06T12:17:54.962Z,60.42
2019-03-06T12:18:55.465Z,61.09
2019-03-06T12:20:07.502Z,61.09
2019-03-06T12:20:55.464Z,59.84
2019-03-06T12:21:55.462Z,59.66
2019-03-06T12:22:55.960Z,60.13
2019-03-06T12:23:55.963Z,60.23
2019-03-06T12:24:59.966Z,61.28
2019-03-06T12:25:56.001Z,60.71
2019-03-06T12:28:27.754Z,60.33
2019-03-06T12:29:27.948Z,61.19
2019-03-06T12:30:31.759Z,60.52
2019-03-06T12:31:49.261Z,60.61
2019-03-06T12:32:28.261Z,59.56
2019-03-06T12:33:49.259Z,59.56
2019-03-06T12:34:28.260Z,59.69
2019-03-06T12:35:35.221Z,58.86
2019-03-06T12:36:49.760Z,58.09
2019-03-06T12:39:00.257Z,56.77
2019-03-06T12:40:00.298Z,56.01
2019-03-06T12:41:04.266Z,57.35
2019-03-06T12:42:00.765Z,56.87
2019-03-06T12:43:00.770Z,56.01
2019-03-06T12:44:09.929Z,56.30
2019-03-06T12:45:00.766Z,54.79
2019-03-06T12:46:01.270Z,53.64
2019-03-06T12:47:04.267Z,53.83
2019-03-06T12:48:01.265Z,53.77
2019-03-06T12:49:01.268Z,53.70
2019-03-06T12:51:33.014Z,51.23
2019-03-06T12:54:08.875Z,52.28
2019-03-06T12:55:10.875Z,52.09
2019-03-06T12:56:08.873Z,52.36
2019-03-06T12:57:08.876Z,53.03
2019-03-06T12:58:12.376Z,52.26
2019-03-06T12:59:11.377Z,53.31
2019-03-06T13:00:09.387Z,51.78
2019-03-06T13:01:09.375Z,52.04
2019-03-06T13:02:09.878Z,52.23
2019-03-06T13:03:36.876Z,53.28
2019-03-06T13:04:09.876Z,52.97
2019-03-06T13:07:02.499Z,53.31
2019-03-06T13:07:41.511Z,53.12
2019-03-06T13:08:50.281Z,51.59
2019-03-06T13:09:42.031Z,51.49
2019-03-06T13:10:42.007Z,52.26
2019-03-06T13:11:42.007Z,53.03
2019-03-06T13:12:42.007Z,51.97
2019-03-06T13:13:42.510Z,52.26
2019-03-06T13:14:46.507Z,52.93
2019-03-06T13:15:41.862Z,51.78
2019-03-06T13:16:42.508Z,52.07
2019-03-06T13:18:04.009Z,51.75
2019-03-06T13:18:49.008Z,52.81
2019-03-06T13:21:18.222Z,52.42
2019-03-06T13:22:18.234Z,52.87
2019-03-06T13:23:18.236Z,53.93
2019-03-06T13:24:18.730Z,54.60
2019-03-06T13:25:22.229Z,54.89
2019-03-06T13:26:18.731Z,55.34
2019-03-06T13:27:18.737Z,54.48
2019-03-06T13:28:19.232Z,56.01
2019-03-06T13:29:19.232Z,56.52
2019-03-06T13:30:24.672Z,56.90
2019-03-06T13:31:19.250Z,55.82
2019-03-06T13:32:40.238Z,54.96
2019-03-06T13:33:41.666Z,55.82
2019-03-06T13:34:18.959Z,56.52
2019-03-06T13:35:19.732Z,57.09
2019-03-06T13:36:23.231Z,53.60
2019-03-06T13:37:41.235Z,52.31
2019-03-06T13:38:20.231Z,51.83
2019-03-06T13:39:20.232Z,50.32
2019-03-06T13:40:20.239Z,50.23
2019-03-06T13:41:24.232Z,49.77
2019-03-06T13:42:41.732Z,49.48
2019-03-06T13:43:20.748Z,48.54
2019-03-06T13:44:20.733Z,47.53
2019-03-06T13:45:20.331Z,45.29
2019-03-06T13:46:21.232Z,47.08
2019-03-06T13:47:24.233Z,48.69
2019-03-06T13:48:21.232Z,49.65
2019-03-06T13:49:44.202Z,49.29
2019-03-06T13:53:28.529Z,48.97
2019-03-06T13:54:24.539Z,49.72